Terminal Aerodrome Forecast
Issued by NWS

Home | Current Version | Previous Version | Graphics & Text | Print | Product List | Glossary On
Versions: 1 2 3 4 5 6 7 8 9 10 11 12 13 14 15 16 17
000
FTUS43 KMPX 211100
TAFAXN
TAF
KAXN 211131Z 2112/2212 18007KT P6SM SCT200
     FM211700 18015G22KT P6SM SCT010 OVC025
     FM212100 20011KT P6SM SCT005 OVC010
     FM220400 20008KT P6SM SCT010 BKN015=

USA.gov is the U.S. government's official web portal to all federal, state and local government web resources and services.